ADDS TAF Board (Experimental) INFO Settings
IDs: Format: Expanded Condensed

KORD - Chicago/O'Hare Intl, IL, US

Issued at 0921 UTC 23 Jul 2016
Updated at 1106 UTC 23 Jul 2016
Time1051Z 23/12Z 23/13Z 23/14Z 23/15Z 23/16Z 23/17Z 23/18Z 23/19Z 23/20Z 23/21Z 23/22Z 23/23Z 24/00Z
Type OBS PRVL PRVL PRVL PRVL PRVL PRVL PRVL PRVL PRVL PRVL PRVL PRVL PRVL
VIS 10 6 6 6 6 6 >6 >6 >6 >6 >6 >6 >6 >6
CIG 33 -- -- -- -- -- 70 70 70 70 250 250 250 250
Cover BKN SCT SCT SCT SCT SCT BKN BKN BKN BKN BKN BKN BKN BKN
FltCat VFR VFR VFR VFR VFR VFR VFR VFR VFR VFR VFR VFR VFR VFR
WX -- BR BR BR BR BR VCTS VCTS VCTS VCTS -- -- -- --
WDir 260 VRB VRB VRB VRB VRB 120 120 120 120 110 110 110 110
WSpd 4 3 3 3 3 3 5 5 5 5 8 8 8 8
WGst -- -- -- -- -- -- -- -- -- -- -- -- -- --
R04/22
XWnd 3 VRB VRB VRB VRB VRB -5 -5 -5 -5 -8 -8 -8 -8
HWnd -3 VRB VRB VRB VRB VRB 1 1 1 1 3 3 3 3
R09/27
XWnd -1 VRB VRB VRB VRB VRB -3 -3 -3 -3 -3 -3 -3 -3
HWnd -4 VRB VRB VRB VRB VRB 4 4 4 4 8 8 8 8
R10/28
XWnd -1 VRB VRB VRB VRB VRB -3 -3 -3 -3 -3 -3 -3 -3
HWnd -4 VRB VRB VRB VRB VRB 4 4 4 4 8 8 8 8
R14/32
XWnd -3 VRB VRB VRB VRB VRB 2 2 2 2 4 4 4 4
HWnd -2 VRB VRB VRB VRB VRB 5 5 5 5 7 7 7 7

Raw TAF
KORD 230921Z 2309/2412 VRB03KT 6SM BR SCT030
  FM231700 12005KT P6SM VCTS SCT040 BKN070CB BKN250
  FM232100 11008KT P6SM SCT050 BKN250
  FM240200 14006KT P6SM SCT040 BKN150
  FM240900 17006KT P6SM VCSH FEW040 OVC100


Raw METAR
KORD 231051Z 26004KT 10SM BKN033 BKN250 26/24 A2998 RMK AO2 SLP147 T02560239
KORD 230951Z 26003KT 10SM BKN033 26/24 A2997 RMK AO2 SLP144 T02560239
KORD 230851Z 25003KT 10SM FEW032 SCT050 26/24 A2998 RMK AO2 SLP145 T02610239 58003

METAR Board
Radar Display
Forecast Discussion

TAF Board Legend

Potential Impact
Threat None Slight Moderate High
Visibility (sm) ≥5.1 5.1>X≥3 3>X≥1 <1
Ceiling (100 ft) ≥30.1 30.1>X≥10 10>X≥5 <5
Wind Speed (kt) <10 10≤X<20 20≤X<30 ≥30
Wind Gust (kt) <15 15≤X<25 25≤X<35 ≥35
Weather No Wx Reported VCTS,-TS,-FZRA,SN TS,FZRA +TS,+FZRA,+SN